createdAt,value
2022-12-05T00:01:51.292Z,1.40
2022-12-05T00:04:19.799Z,1.40
2022-12-05T00:06:49.274Z,1.40
2022-12-05T00:09:17.304Z,1.40
2022-12-05T00:11:46.129Z,1.40
2022-12-05T00:14:14.815Z,1.40
2022-12-05T00:16:44.616Z,1.40
2022-12-05T00:19:18.024Z,1.40
2022-12-05T00:21:46.612Z,1.40
2022-12-05T00:24:17.378Z,1.30
2022-12-05T00:26:45.662Z,1.40
2022-12-05T00:29:14.160Z,1.40
2022-12-05T00:31:42.727Z,1.40
2022-12-05T00:34:12.967Z,1.40
2022-12-05T00:36:41.095Z,1.40
2022-12-05T00:39:11.429Z,1.40
2022-12-05T00:41:41.056Z,1.40
2022-12-05T00:44:09.268Z,1.30
2022-12-05T00:46:37.896Z,1.40
2022-12-05T00:49:07.525Z,1.40
2022-12-05T00:51:39.647Z,1.40
2022-12-05T00:54:09.653Z,1.30
2022-12-05T00:56:38.173Z,1.30
2022-12-05T00:59:09.448Z,1.30
2022-12-05T01:01:41.014Z,1.40
2022-12-05T01:04:12.385Z,1.40
2022-12-05T01:06:41.011Z,1.30
2022-12-05T01:09:11.852Z,1.40
2022-12-05T01:11:41.572Z,1.30
2022-12-05T01:14:13.407Z,1.30
2022-12-05T01:16:42.890Z,1.30
2022-12-05T01:19:14.006Z,1.30
2022-12-05T01:21:42.548Z,1.30
2022-12-05T01:24:10.629Z,1.30
2022-12-05T01:26:39.095Z,1.30
2022-12-05T01:29:07.163Z,1.30
2022-12-05T01:31:39.809Z,1.30
2022-12-05T01:34:11.069Z,1.30
2022-12-05T01:36:39.530Z,1.30
2022-12-05T01:39:08.136Z,1.30
2022-12-05T01:41:38.360Z,1.30
2022-12-05T01:44:08.570Z,1.30
2022-12-05T01:46:39.525Z,1.30
2022-12-05T01:49:11.999Z,1.30
2022-12-05T01:51:42.081Z,1.30
2022-12-05T01:54:11.391Z,1.30
2022-12-05T01:56:43.025Z,1.30
2022-12-05T01:59:15.967Z,1.30
2022-12-05T02:01:45.784Z,1.40
2022-12-05T02:04:14.409Z,1.40
2022-12-05T02:06:42.495Z,1.40
2022-12-05T02:09:10.764Z,1.40
2022-12-05T02:11:48.219Z,1.40
2022-12-05T02:14:26.383Z,1.40
2022-12-05T02:17:03.372Z,1.40
2022-12-05T02:20:01.195Z,1.50
2022-12-05T02:22:56.523Z,1.40
2022-12-05T02:26:02.035Z,1.40
2022-12-05T02:28:54.454Z,1.40
2022-12-05T02:31:35.095Z,1.40
2022-12-05T02:34:11.983Z,1.40
2022-12-05T02:36:46.811Z,1.40
2022-12-05T02:39:22.350Z,1.40
2022-12-05T02:41:53.838Z,1.40
2022-12-05T02:44:30.451Z,1.40
2022-12-05T02:47:01.160Z,1.40
2022-12-05T02:49:33.897Z,1.40
2022-12-05T02:52:05.269Z,1.40
2022-12-05T02:54:36.332Z,1.40
2022-12-05T02:57:05.609Z,1.40
2022-12-05T02:59:33.629Z,1.40
2022-12-05T03:02:03.072Z,1.40
2022-12-05T03:04:32.503Z,1.40
2022-12-05T03:07:03.693Z,1.40
2022-12-05T03:09:36.592Z,1.40
2022-12-05T03:12:11.613Z,1.40
2022-12-05T03:14:44.982Z,1.40
2022-12-05T03:17:21.706Z,1.40
2022-12-05T03:19:54.415Z,1.40
2022-12-05T03:22:28.977Z,1.40
2022-12-05T03:24:57.164Z,1.40
2022-12-05T03:27:30.680Z,1.40
2022-12-05T03:30:03.668Z,1.40
2022-12-05T03:32:38.843Z,1.40
2022-12-05T03:35:12.632Z,1.40
2022-12-05T03:37:48.812Z,1.40
2022-12-05T03:40:27.473Z,1.40
2022-12-05T03:43:02.702Z,1.40
2022-12-05T03:45:38.850Z,1.40
2022-12-05T03:48:15.752Z,1.40
2022-12-05T03:50:47.581Z,1.40
2022-12-05T03:53:21.060Z,1.40
2022-12-05T03:55:56.653Z,1.40
2022-12-05T03:58:30.396Z,1.50
2022-12-05T04:01:02.837Z,1.50
2022-12-05T04:03:40.409Z,1.50
2022-12-05T04:06:15.224Z,1.50
2022-12-05T04:08:47.887Z,1.50
2022-12-05T04:11:19.662Z,1.50
2022-12-05T04:13:51.185Z,1.50
2022-12-05T04:16:41.395Z,1.50
2022-12-05T04:19:16.288Z,1.50
2022-12-05T04:21:47.072Z,1.50
2022-12-05T04:24:36.599Z,1.50
2022-12-05T04:27:21.137Z,1.40
2022-12-05T04:29:56.051Z,1.40
2022-12-05T04:32:29.582Z,1.40
2022-12-05T04:35:02.674Z,1.50
2022-12-05T04:37:35.616Z,1.50
2022-12-05T04:40:10.812Z,1.50
2022-12-05T04:42:42.610Z,1.50
2022-12-05T04:45:16.575Z,1.40
2022-12-05T04:47:49.487Z,1.50
2022-12-05T04:50:20.523Z,1.50
2022-12-05T04:52:53.846Z,1.50
2022-12-05T04:55:25.987Z,1.50
2022-12-05T04:58:01.064Z,1.50
2022-12-05T05:00:29.934Z,1.50
2022-12-05T05:03:05.258Z,1.50
2022-12-05T05:05:37.139Z,1.50
2022-12-05T05:08:05.544Z,1.50
2022-12-05T05:10:39.089Z,1.50
2022-12-05T05:13:07.102Z,1.50
2022-12-05T05:15:35.189Z,1.50
2022-12-05T05:18:03.247Z,1.40
2022-12-05T05:20:31.244Z,1.50
2022-12-05T05:23:00.855Z,1.50
2022-12-05T05:25:28.999Z,1.40
2022-12-05T05:27:57.755Z,1.40
2022-12-05T05:30:26.451Z,1.50
2022-12-05T05:32:55.001Z,1.50
2022-12-05T05:35:23.771Z,1.50
2022-12-05T05:37:51.740Z,1.50
2022-12-05T05:40:21.303Z,1.40
2022-12-05T05:42:51.637Z,1.50
2022-12-05T05:45:19.708Z,1.50
2022-12-05T05:47:50.072Z,1.50
2022-12-05T05:50:21.710Z,1.50
2022-12-05T05:52:50.186Z,1.50
2022-12-05T05:55:18.341Z,1.50
2022-12-05T05:57:47.745Z,1.50
2022-12-05T06:00:19.100Z,1.50
2022-12-05T06:02:47.248Z,1.50
2022-12-05T06:05:18.481Z,1.50
2022-12-05T06:07:46.514Z,1.50
2022-12-05T06:10:14.727Z,1.50
2022-12-05T06:12:42.761Z,1.50
2022-12-05T06:15:12.894Z,1.40
2022-12-05T06:17:40.920Z,1.40
2022-12-05T06:20:10.296Z,1.40
2022-12-05T06:22:39.485Z,1.40
2022-12-05T06:25:08.888Z,1.40
2022-12-05T06:27:36.919Z,1.40
2022-12-05T06:30:05.719Z,1.30
2022-12-05T06:32:35.098Z,1.30
2022-12-05T06:35:09.083Z,1.40
2022-12-05T06:37:38.393Z,1.40
2022-12-05T06:40:07.807Z,1.40
2022-12-05T06:42:35.803Z,1.40
2022-12-05T06:45:04.230Z,1.40
2022-12-05T06:47:32.225Z,1.40
2022-12-05T06:50:01.693Z,1.40
2022-12-05T06:52:29.710Z,1.40
2022-12-05T06:54:59.669Z,1.40
2022-12-05T06:57:29.333Z,1.40
2022-12-05T07:00:20.641Z,1.40
2022-12-05T07:02:50.740Z,1.50
2022-12-05T07:05:20.467Z,1.50
2022-12-05T07:07:48.465Z,1.50
2022-12-05T07:10:17.035Z,1.50
2022-12-05T07:12:45.065Z,1.50
2022-12-05T07:15:13.118Z,1.50
2022-12-05T07:17:41.213Z,1.50
2022-12-05T07:20:12.525Z,1.50
2022-12-05T07:22:41.907Z,1.50
2022-12-05T07:25:10.475Z,1.50
2022-12-05T07:27:38.454Z,1.50
2022-12-05T07:30:07.652Z,1.50
2022-12-05T07:32:35.852Z,1.50
2022-12-05T07:35:03.969Z,1.50
2022-12-05T07:37:32.013Z,1.50
2022-12-05T07:40:01.423Z,1.50
2022-12-05T07:42:29.629Z,1.50
2022-12-05T07:44:57.651Z,1.60
2022-12-05T07:47:26.736Z,1.60
2022-12-05T07:49:54.747Z,1.60
2022-12-05T07:52:23.055Z,1.60
2022-12-05T07:54:51.056Z,1.60
2022-12-05T07:57:20.424Z,1.70
2022-12-05T07:59:48.459Z,1.70
2022-12-05T08:02:16.494Z,1.70
2022-12-05T08:04:44.562Z,1.80
2022-12-05T08:07:12.700Z,1.80
2022-12-05T08:09:40.722Z,1.80
2022-12-05T08:12:09.128Z,1.80
2022-12-05T08:14:39.647Z,1.90
2022-12-05T08:17:07.662Z,1.90
2022-12-05T08:19:35.789Z,1.90
2022-12-05T08:22:04.047Z,1.90
2022-12-05T08:24:33.636Z,1.90
2022-12-05T08:27:01.638Z,2.00
2022-12-05T08:29:29.721Z,2.00
2022-12-05T08:32:01.409Z,2.00
2022-12-05T08:34:29.586Z,2.10
2022-12-05T08:36:57.851Z,2.10
2022-12-05T08:39:27.155Z,2.20
2022-12-05T08:41:55.151Z,2.20
2022-12-05T08:44:23.202Z,2.30
2022-12-05T08:46:51.672Z,2.30
2022-12-05T08:49:21.324Z,2.30
2022-12-05T08:51:49.344Z,2.40
2022-12-05T08:54:17.898Z,2.40
2022-12-05T08:56:45.984Z,2.40
2022-12-05T08:59:14.032Z,2.40
2022-12-05T09:01:42.373Z,2.40
2022-12-05T09:04:12.259Z,2.50
2022-12-05T09:06:42.456Z,2.50
2022-12-05T09:09:11.909Z,2.50
2022-12-05T09:11:45.982Z,2.50
2022-12-05T09:14:14.917Z,2.50
2022-12-05T09:16:44.474Z,2.50
2022-12-05T09:19:14.532Z,2.50
2022-12-05T09:21:45.077Z,2.50
2022-12-05T09:24:14.062Z,2.60
2022-12-05T09:26:42.698Z,2.60
2022-12-05T09:29:16.779Z,2.60
2022-12-05T09:31:46.966Z,2.70
2022-12-05T09:34:15.562Z,2.70
2022-12-05T09:36:45.175Z,2.80
2022-12-05T09:39:13.800Z,2.80
2022-12-05T09:42:13.114Z,2.90
2022-12-05T09:44:51.857Z,2.90
2022-12-05T09:47:33.488Z,3.00
2022-12-05T09:50:12.934Z,3.00
2022-12-05T09:52:47.294Z,3.10
2022-12-05T09:55:17.756Z,3.20
2022-12-05T09:57:51.846Z,3.20
2022-12-05T10:00:21.010Z,3.30
2022-12-05T10:03:01.082Z,3.20
2022-12-05T10:05:36.318Z,3.30
2022-12-05T10:08:13.491Z,3.40
2022-12-05T10:10:48.873Z,3.40
2022-12-05T10:13:29.023Z,3.50
2022-12-05T10:16:01.684Z,3.60
2022-12-05T10:18:34.947Z,3.60
2022-12-05T10:21:07.153Z,3.60
2022-12-05T10:23:59.779Z,3.60
2022-12-05T10:26:31.428Z,3.70
2022-12-05T10:29:08.275Z,3.80
2022-12-05T10:31:39.541Z,3.80
2022-12-05T10:34:16.327Z,3.90
2022-12-05T10:36:51.294Z,3.90
2022-12-05T10:39:21.784Z,3.90
2022-12-05T10:41:49.885Z,3.90
2022-12-05T10:44:17.935Z,3.90
2022-12-05T10:46:46.237Z,4.00
2022-12-05T10:49:15.317Z,4.10
2022-12-05T10:51:43.544Z,4.10
2022-12-05T10:54:19.169Z,4.10
2022-12-05T10:56:50.014Z,4.20
2022-12-05T10:59:20.692Z,4.20
2022-12-05T11:01:51.994Z,4.30
2022-12-05T11:04:26.540Z,4.30
2022-12-05T11:06:58.195Z,4.30
2022-12-05T11:09:29.250Z,4.40
2022-12-05T11:12:07.783Z,4.30
2022-12-05T11:14:36.483Z,4.40
2022-12-05T11:17:06.774Z,4.40
2022-12-05T11:19:37.285Z,4.50
2022-12-05T11:22:08.154Z,4.50
2022-12-05T11:24:37.689Z,4.50
2022-12-05T11:30:04.725Z,4.60
2022-12-05T11:32:34.843Z,4.60
2022-12-05T11:35:10.836Z,4.60
2022-12-05T11:37:45.075Z,4.70
2022-12-05T11:40:21.567Z,4.70
2022-12-05T11:43:13.188Z,4.70
2022-12-05T11:45:56.725Z,4.80
2022-12-05T11:48:42.030Z,4.80
2022-12-05T11:51:24.202Z,4.80
2022-12-05T11:54:15.869Z,4.80
2022-12-05T11:56:50.263Z,4.90
2022-12-05T11:59:35.592Z,5.00
2022-12-05T12:02:23.845Z,5.10
2022-12-05T12:04:58.688Z,5.10
2022-12-05T12:07:47.823Z,5.10
2022-12-05T12:10:24.846Z,5.10
2022-12-05T12:13:08.623Z,5.20
2022-12-05T12:16:02.732Z,5.20
2022-12-05T12:18:53.127Z,5.30
2022-12-05T12:21:35.351Z,5.30
2022-12-05T12:24:17.837Z,5.30
2022-12-05T12:26:55.914Z,5.40
2022-12-05T12:29:35.646Z,5.40
2022-12-05T12:32:19.255Z,5.40
2022-12-05T12:35:06.013Z,5.50
2022-12-05T12:37:44.560Z,5.50
2022-12-05T12:40:19.571Z,5.50
2022-12-05T12:42:57.815Z,5.50
2022-12-05T12:45:40.810Z,5.50
2022-12-05T12:48:27.160Z,5.50
2022-12-05T12:50:57.438Z,5.60
2022-12-05T12:53:52.910Z,5.60
2022-12-05T12:56:39.230Z,5.60
2022-12-05T12:59:24.027Z,5.60
2022-12-05T13:01:59.581Z,5.60
2022-12-05T13:04:33.514Z,5.70
2022-12-05T13:07:07.690Z,5.70
2022-12-05T13:09:40.686Z,5.70
2022-12-05T13:12:14.600Z,5.70
2022-12-05T13:14:52.222Z,5.70
2022-12-05T13:17:23.416Z,5.80
2022-12-05T13:19:53.756Z,5.80
2022-12-05T13:22:25.772Z,5.80
2022-12-05T13:24:54.458Z,5.80
2022-12-05T13:27:24.483Z,5.80
2022-12-05T13:29:56.432Z,5.80
2022-12-05T13:32:33.516Z,5.90
2022-12-05T13:35:09.163Z,5.90
2022-12-05T13:38:03.956Z,5.90
2022-12-05T13:40:52.075Z,5.90
2022-12-05T13:43:22.940Z,5.90
2022-12-05T13:46:03.778Z,5.90
2022-12-05T13:48:34.071Z,5.80
2022-12-05T13:51:06.826Z,5.80
2022-12-05T13:53:41.699Z,5.80
2022-12-05T13:56:28.483Z,5.80
2022-12-05T13:58:58.340Z,5.80
2022-12-05T14:01:55.957Z,5.80
2022-12-05T14:04:50.328Z,5.70
2022-12-05T14:07:43.948Z,5.70
2022-12-05T14:10:17.612Z,5.70
2022-12-05T14:12:55.063Z,5.70
2022-12-05T14:15:35.494Z,5.60
2022-12-05T14:18:14.276Z,5.60
2022-12-05T14:21:02.275Z,5.60
2022-12-05T14:24:01.314Z,5.60
2022-12-05T14:26:56.954Z,5.60
2022-12-05T14:29:45.077Z,5.50
2022-12-05T14:32:23.190Z,5.50
2022-12-05T14:34:58.335Z,5.50
2022-12-05T14:37:30.249Z,5.50
2022-12-05T14:40:01.791Z,5.50
2022-12-05T14:42:42.840Z,5.50
2022-12-05T14:45:28.124Z,5.50
2022-12-05T14:47:58.877Z,5.40
2022-12-05T14:50:45.151Z,5.40
2022-12-05T14:53:25.521Z,5.40
2022-12-05T14:55:56.339Z,5.40
2022-12-05T14:58:35.212Z,5.40
2022-12-05T15:01:07.594Z,5.40
2022-12-05T15:03:39.057Z,5.40
2022-12-05T15:06:15.863Z,5.40
2022-12-05T15:08:48.667Z,5.30
2022-12-05T15:11:28.209Z,5.40
2022-12-05T15:14:03.993Z,5.30
2022-12-05T15:16:34.311Z,5.30
2022-12-05T15:19:07.542Z,5.30
2022-12-05T15:21:41.213Z,5.20
2022-12-05T15:24:14.150Z,5.20
2022-12-05T15:26:47.938Z,5.20
2022-12-05T15:29:26.796Z,5.20
2022-12-05T15:31:57.002Z,5.20
2022-12-05T15:34:30.334Z,5.20
2022-12-05T15:37:02.940Z,5.20
2022-12-05T15:39:31.176Z,5.20
2022-12-05T15:41:59.400Z,5.20
2022-12-05T15:44:37.415Z,5.20
2022-12-05T15:47:06.135Z,5.20
2022-12-05T15:49:34.264Z,5.20
2022-12-05T15:52:21.256Z,5.20
2022-12-05T15:54:49.826Z,5.20
2022-12-05T15:57:21.843Z,5.20
2022-12-05T15:59:54.843Z,5.20
2022-12-05T16:02:26.995Z,5.20
2022-12-05T16:05:01.271Z,5.20
2022-12-05T16:07:32.163Z,5.20
2022-12-05T16:10:02.187Z,5.30
2022-12-05T16:12:36.924Z,5.30
2022-12-05T16:15:13.516Z,5.30
2022-12-05T16:17:47.904Z,5.30
2022-12-05T16:20:30.921Z,5.20
2022-12-05T16:23:04.470Z,5.20
2022-12-05T16:25:34.841Z,5.20
2022-12-05T16:28:15.737Z,5.30
2022-12-05T16:30:56.615Z,5.20
2022-12-05T16:33:24.968Z,5.20
2022-12-05T16:35:53.411Z,5.20
2022-12-05T16:38:24.701Z,5.20
2022-12-05T16:40:55.963Z,5.20
2022-12-05T16:43:43.868Z,5.20
2022-12-05T16:46:46.881Z,5.20
2022-12-05T16:49:40.075Z,5.20
2022-12-05T16:52:15.608Z,5.20
2022-12-05T16:54:46.109Z,5.20
2022-12-05T16:57:16.099Z,5.20
2022-12-05T16:59:49.393Z,5.10
2022-12-05T17:02:19.888Z,5.10
2022-12-05T17:04:47.926Z,5.10
2022-12-05T17:07:15.980Z,5.10
2022-12-05T17:09:43.970Z,5.10
2022-12-05T17:12:19.589Z,5.10
2022-12-05T17:14:47.787Z,5.10
2022-12-05T17:17:18.260Z,5.20
2022-12-05T17:19:47.752Z,5.10
2022-12-05T17:22:16.544Z,5.10
2022-12-05T17:24:44.571Z,5.10
2022-12-05T17:27:13.812Z,5.20
2022-12-05T17:29:41.847Z,5.10
2022-12-05T17:32:11.359Z,5.10
2022-12-05T17:34:39.386Z,5.10
2022-12-05T17:37:08.720Z,5.10
2022-12-05T17:39:36.714Z,5.00
2022-12-05T17:42:04.871Z,5.00
2022-12-05T17:44:33.168Z,5.00
2022-12-05T17:47:07.925Z,5.00
2022-12-05T17:49:36.480Z,5.00
2022-12-05T17:54:54.232Z,4.90
2022-12-05T17:57:22.220Z,4.90
2022-12-05T17:59:50.278Z,4.90
2022-12-05T18:02:19.969Z,4.90
2022-12-05T18:04:48.114Z,4.90
2022-12-05T18:07:16.731Z,4.90
2022-12-05T18:09:44.779Z,4.90
2022-12-05T18:12:14.125Z,4.90
2022-12-05T18:14:42.163Z,4.90
2022-12-05T18:17:10.199Z,4.90
2022-12-05T18:19:38.239Z,4.90
2022-12-05T18:22:06.279Z,4.90
2022-12-05T18:24:34.265Z,4.90
2022-12-05T18:27:02.285Z,4.90
2022-12-05T18:29:31.951Z,4.90
2022-12-05T18:32:02.641Z,4.90
2022-12-05T18:34:30.717Z,4.90
2022-12-05T18:36:58.809Z,4.90
2022-12-05T18:39:27.312Z,4.90
2022-12-05T18:41:55.412Z,4.90
2022-12-05T18:44:23.392Z,4.90
2022-12-05T18:46:52.796Z,4.90
2022-12-05T18:49:20.796Z,4.90
2022-12-05T18:51:49.023Z,4.80
2022-12-05T18:54:17.157Z,4.90
2022-12-05T18:56:45.999Z,4.90
2022-12-05T18:59:16.243Z,4.90
2022-12-05T19:01:44.922Z,4.80
2022-12-05T19:04:17.326Z,4.80
2022-12-05T19:06:50.104Z,4.80
2022-12-05T19:09:20.262Z,4.80
2022-12-05T19:11:50.333Z,4.80
2022-12-05T19:14:20.885Z,4.80
2022-12-05T19:16:53.671Z,4.80
2022-12-05T19:19:27.728Z,4.70
2022-12-05T19:21:55.755Z,4.70
2022-12-05T19:24:23.798Z,4.70
2022-12-05T19:26:51.812Z,4.70
2022-12-05T19:29:19.877Z,4.70
2022-12-05T19:31:47.941Z,4.70
2022-12-05T19:34:16.137Z,4.60
2022-12-05T19:36:46.915Z,4.60
2022-12-05T19:39:17.167Z,4.60
2022-12-05T19:41:45.897Z,4.60
2022-12-05T19:44:14.454Z,4.60
2022-12-05T19:46:44.143Z,4.60
2022-12-05T19:49:14.583Z,4.60
2022-12-05T19:51:43.022Z,4.60
2022-12-05T19:54:20.220Z,4.60
2022-12-05T19:56:48.235Z,4.60
2022-12-05T19:59:17.384Z,4.60
2022-12-05T20:01:45.738Z,4.60
2022-12-05T20:04:16.668Z,4.60
2022-12-05T20:06:46.207Z,4.60
2022-12-05T20:09:19.700Z,4.60
2022-12-05T20:11:54.547Z,4.60
2022-12-05T20:14:24.547Z,4.60
2022-12-05T20:16:52.883Z,4.60
2022-12-05T20:19:21.335Z,4.60
2022-12-05T20:21:49.496Z,4.60
2022-12-05T20:24:18.884Z,4.60
2022-12-05T20:26:46.918Z,4.60
2022-12-05T20:29:14.983Z,4.60
2022-12-05T20:31:44.190Z,4.60
2022-12-05T20:34:14.784Z,4.60
2022-12-05T20:36:43.318Z,4.60
2022-12-05T20:39:14.306Z,4.60
2022-12-05T20:41:46.564Z,4.60
2022-12-05T20:44:17.042Z,4.60
2022-12-05T20:46:45.123Z,4.60
2022-12-05T20:49:13.816Z,4.60
2022-12-05T20:51:43.616Z,4.60
2022-12-05T20:54:12.751Z,4.60
2022-12-05T20:56:41.385Z,4.60
2022-12-05T20:59:13.528Z,4.60
2022-12-05T21:01:41.675Z,4.50
2022-12-05T21:04:10.619Z,4.50
2022-12-05T21:06:42.699Z,4.60
2022-12-05T21:09:15.823Z,4.60
2022-12-05T21:11:44.181Z,4.60
2022-12-05T21:14:13.732Z,4.60
2022-12-05T21:16:42.257Z,4.50
2022-12-05T21:19:10.255Z,4.50
2022-12-05T21:21:40.537Z,4.50
2022-12-05T21:24:10.528Z,4.50
2022-12-05T21:26:39.628Z,4.50
2022-12-05T21:29:10.531Z,4.60
2022-12-05T21:31:41.517Z,4.60
2022-12-05T21:34:14.723Z,4.60
2022-12-05T21:36:42.910Z,4.60
2022-12-05T21:39:12.075Z,4.60
2022-12-05T21:41:40.287Z,4.50
2022-12-05T21:44:08.930Z,4.50
2022-12-05T21:46:37.246Z,4.50
2022-12-05T21:49:06.792Z,4.50
2022-12-05T21:51:34.789Z,4.50
2022-12-05T21:54:02.840Z,4.50
2022-12-05T21:56:30.889Z,4.50
2022-12-05T21:58:58.882Z,4.50
2022-12-05T22:01:28.761Z,4.50
2022-12-05T22:03:59.464Z,4.50
2022-12-05T22:06:33.407Z,4.40
2022-12-05T22:09:01.830Z,4.50
2022-12-05T22:11:29.902Z,4.50
2022-12-05T22:13:57.916Z,4.50
2022-12-05T22:16:32.332Z,4.50
2022-12-05T22:19:04.694Z,4.50
2022-12-05T22:21:34.754Z,4.50
2022-12-05T22:24:02.926Z,4.40
2022-12-05T22:26:30.927Z,4.50
2022-12-05T22:28:58.994Z,4.40
2022-12-05T22:31:27.099Z,4.40
2022-12-05T22:33:55.217Z,4.40
2022-12-05T22:36:24.140Z,4.40
2022-12-05T22:38:53.559Z,4.40
2022-12-05T22:41:22.756Z,4.40
2022-12-05T22:43:56.083Z,4.40
2022-12-05T22:46:25.024Z,4.50
2022-12-05T22:48:53.599Z,4.40
2022-12-05T22:51:22.854Z,4.40
2022-12-05T22:53:53.256Z,4.40
2022-12-05T22:56:22.459Z,4.40
2022-12-05T22:58:53.846Z,4.40
2022-12-05T23:01:23.819Z,4.40
2022-12-05T23:03:57.951Z,4.40
2022-12-05T23:06:27.135Z,4.40
2022-12-05T23:08:56.775Z,4.40
2022-12-05T23:11:26.368Z,4.40
2022-12-05T23:14:01.121Z,4.40
2022-12-05T23:16:32.088Z,4.40
2022-12-05T23:19:02.131Z,4.40
2022-12-05T23:21:31.857Z,4.40
2022-12-05T23:24:02.777Z,4.40
2022-12-05T23:26:33.423Z,4.40
2022-12-05T23:29:02.131Z,4.40
2022-12-05T23:31:31.541Z,4.40
2022-12-05T23:34:03.143Z,4.40
2022-12-05T23:36:32.352Z,4.40
2022-12-05T23:39:02.056Z,4.40
2022-12-05T23:41:30.088Z,4.40
2022-12-05T23:43:59.119Z,4.40
2022-12-05T23:46:28.358Z,4.40
2022-12-05T23:48:57.445Z,4.40
2022-12-05T23:51:26.974Z,4.40
2022-12-05T23:53:57.352Z,4.40
2022-12-05T23:56:28.200Z,4.40
2022-12-05T23:58:56.711Z,4.40
